Time;durP1;ratioP1;P1;durP2;ratioP2;P2;SDS_P1;SDS_P2;PMS_P1;PMS_P2;Temp;Humidity;BMP_temperature;BMP_pressure;BME280_temperature;BME280_humidity;BME280_pressure;Samples;Min_cycle;Max_cycle;Signal;HPM_P1;HPM_P2
2023/02/21 02:14:38;;;;;;;;;;;;;;;8.78;89.08;100668.25;4185115;28;19995;-67
2023/02/21 02:16:43;;;;;;;;;;;;;;;8.78;89.65;100649.38;4193189;28;20011;-67
2023/02/21 02:18:49;;;;;;;;;;;;;;;8.79;89.46;100661.00;4193700;28;20015;-68
2023/02/21 02:21:08;;;;;;;;;;;;;;;8.79;88.96;100652.91;4184472;28;20019;-67
2023/02/21 02:23:17;;;;;;;;;;;;;;;8.80;88.59;100654.59;4184632;28;20007;-67
2023/02/21 02:25:22;;;;;;;;;;;;;;;8.80;88.32;100649.22;4200055;28;20031;-67
2023/02/21 02:27:43;;;;;;;;;;;;;;;8.80;87.93;100646.53;4190064;28;20489;-67
2023/02/21 02:29:50;;;;;;;;;;;;;;;8.81;87.48;100646.38;4208356;28;20008;-67
2023/02/21 02:32:07;;;;;;;;;;;;;;;8.88;87.58;100645.69;4191807;28;20033;-67
2023/02/21 02:34:28;;;;;;;;;;;;;;;8.87;87.44;100644.84;4194549;28;20015;-67
2023/02/21 02:36:32;;;;;;;;;;;;;;;8.88;88.19;100643.81;4190483;28;21480;-67
2023/02/21 02:38:36;;;;;;;;;;;;;;;8.90;88.06;100644.50;4185201;28;20023;-67
2023/02/21 02:40:41;;;;;;;;;;;;;;;8.89;88.15;100642.84;4201357;28;20390;-67
2023/02/21 02:42:47;;;;;;;;;;;;;;;8.89;88.37;100636.63;4194676;28;20040;-67
2023/02/21 02:44:50;;;;;;;;;;;;;;;8.92;88.33;100647.88;4191819;28;20023;-67
2023/02/21 02:46:52;;;;;;;;;;;;;;;8.93;87.93;100640.63;4185489;28;20007;-67
2023/02/21 02:48:57;;;;;;;;;;;;;;;8.92;88.16;100642.50;4195140;28;20015;-67
2023/02/21 02:50:58;;;;;;;;;;;;;;;8.94;87.75;100629.69;4194155;28;20365;-67
2023/02/21 02:53:02;;;;;;;;;;;;;;;8.92;87.47;100642.50;4194283;28;20016;-67
2023/02/21 02:55:19;;;;;;;;;;;;;;;8.94;87.45;100651.25;4202214;28;20004;-67
2023/02/21 02:57:21;;;;;;;;;;;;;;;8.95;87.62;100652.94;4201646;28;20014;-67
2023/02/21 02:59:25;;;;;;;;;;;;;;;8.96;87.92;100643.00;4193643;28;20024;-67
2023/02/21 03:01:35;;;;;;;;;;;;;;;8.95;87.79;100642.16;4201198;28;20015;-67
2023/02/21 03:03:55;;;;;;;;;;;;;;;8.96;87.57;100646.50;4195207;28;20019;-67
2023/02/21 03:06:01;;;;;;;;;;;;;;;8.96;87.59;100653.75;4202435;28;20011;-67
2023/02/21 03:08:04;;;;;;;;;;;;;;;8.96;87.35;100645.69;4195324;28;20011;-67
2023/02/21 03:10:12;;;;;;;;;;;;;;;8.97;87.39;100647.38;4193624;28;20000;-67
2023/02/21 03:12:17;;;;;;;;;;;;;;;8.98;87.12;100635.56;4193251;28;20031;-67
2023/02/21 03:14:20;;;;;;;;;;;;;;;8.98;87.77;100639.13;4196924;28;20039;-67
2023/02/21 03:16:24;;;;;;;;;;;;;;;9.00;87.82;100647.03;4197016;28;20289;-67
2023/02/21 03:18:27;;;;;;;;;;;;;;;8.99;88.34;100635.41;4204392;28;20473;-67
2023/02/21 03:20:29;;;;;;;;;;;;;;;8.99;88.15;100638.09;4194705;28;20046;-67
2023/02/21 03:22:31;;;;;;;;;;;;;;;8.99;88.07;100632.72;4198392;28;20022;-67
2023/02/21 03:24:36;;;;;;;;;;;;;;;9.05;87.44;100633.06;4188710;28;20067;-67
2023/02/21 03:26:38;;;;;;;;;;;;;;;9.01;87.46;100608.28;4198513;28;20040;-67
2023/02/21 03:28:59;;;;;;;;;;;;;;;9.07;87.05;100622.94;4188569;28;20016;-67
2023/02/21 03:31:05;;;;;;;;;;;;;;;9.06;87.36;100616.72;4188281;28;20407;-67
2023/02/21 03:33:07;;;;;;;;;;;;;;;9.06;86.97;100630.19;4197634;28;20059;-67
2023/02/21 03:35:09;;;;;;;;;;;;;;;9.07;87.29;100628.34;4197143;28;20011;-67
2023/02/21 03:37:18;;;;;;;;;;;;;;;9.07;87.46;100625.66;4195968;28;20023;-67
2023/02/21 03:39:20;;;;;;;;;;;;;;;9.06;87.31;100626.66;4195298;28;20031;-67
2023/02/21 03:41:23;;;;;;;;;;;;;;;9.06;87.13;100632.91;4199132;28;20023;-67
2023/02/21 03:43:25;;;;;;;;;;;;;;;9.07;87.03;100645.34;4196293;28;20378;-67
2023/02/21 03:45:33;;;;;;;;;;;;;;;9.08;86.97;100636.25;4195785;28;20012;-67
2023/02/21 03:47:48;;;;;;;;;;;;;;;9.09;86.88;100640.63;4186533;28;20023;-67
2023/02/21 03:49:50;;;;;;;;;;;;;;;9.09;86.60;100643.34;4187371;28;20031;-67
2023/02/21 03:51:53;;;;;;;;;;;;;;;9.10;86.65;100642.31;4193582;28;20040;-67
2023/02/21 03:53:55;;;;;;;;;;;;;;;9.11;86.94;100643.16;4188224;28;20031;-67
2023/02/21 03:56:04;;;;;;;;;;;;;;;9.09;86.91;100632.56;4204123;28;20018;-67
2023/02/21 03:58:23;;;;;;;;;;;;;;;9.13;87.03;100638.44;4196331;28;19988;-67
2023/02/21 04:00:25;;;;;;;;;;;;;;;9.13;86.61;100639.28;4186215;28;20047;-67
2023/02/21 04:02:31;;;;;;;;;;;;;;;9.11;86.24;100648.56;4187130;28;20485;-67
2023/02/21 04:04:33;;;;;;;;;;;;;;;9.14;86.29;100643.66;4204368;28;20043;-67
2023/02/21 04:06:42;;;;;;;;;;;;;;;9.12;86.06;100650.22;4196842;28;20019;-67
2023/02/21 04:08:45;;;;;;;;;;;;;;;9.12;86.15;100645.69;4204374;28;20030;-67
2023/02/21 04:10:47;;;;;;;;;;;;;;;9.12;85.91;100653.78;4211290;28;20011;-66
2023/02/21 04:12:51;;;;;;;;;;;;;;;9.13;86.16;100660.00;4195295;28;20019;-67
2023/02/21 04:14:57;;;;;;;;;;;;;;;9.12;86.20;100650.22;4202826;28;20011;-67
2023/02/21 04:16:59;;;;;;;;;;;;;;;9.14;86.44;100651.75;4211290;28;20493;-67
2023/02/21 04:19:02;;;;;;;;;;;;;;;9.15;86.24;100650.75;4195597;28;20087;-67
2023/02/21 04:21:04;;;;;;;;;;;;;;;9.16;86.48;100647.00;4203408;28;20743;-67
2023/02/21 04:23:06;;;;;;;;;;;;;;;9.15;85.95;100664.22;4196899;28;20027;-67
2023/02/21 04:25:09;;;;;;;;;;;;;;;9.15;86.09;100666.03;4203080;28;20028;-67
2023/02/21 04:27:20;;;;;;;;;;;;;;;9.16;87.30;100671.25;4195694;28;20019;-67
2023/02/21 04:29:28;;;;;;;;;;;;;;;9.20;86.55;100661.00;4204802;28;20051;-67
2023/02/21 04:31:32;;;;;;;;;;;;;;;9.19;86.37;100657.44;4192717;28;20039;-67
2023/02/21 04:33:36;;;;;;;;;;;;;;;9.20;86.06;100669.94;4204336;28;20410;-67
2023/02/21 04:35:39;;;;;;;;;;;;;;;9.21;86.05;100668.06;4211000;28;20034;-67
2023/02/21 04:37:49;;;;;;;;;;;;;;;9.19;85.83;100670.09;4195282;28;20023;-67
2023/02/21 04:39:51;;;;;;;;;;;;;;;9.19;85.79;100668.22;4194388;28;20019;-67
2023/02/21 04:41:54;;;;;;;;;;;;;;;9.20;85.75;100666.41;4195750;28;20122;-67
2023/02/21 04:43:57;;;;;;;;;;;;;;;9.18;85.43;100663.00;4196270;28;20028;-67
2023/02/21 04:45:59;;;;;;;;;;;;;;;9.20;85.91;100655.63;4170777;28;19965;-67
2023/02/21 04:48:02;;;;;;;;;;;;;;;9.21;85.58;100668.06;4195731;28;20019;-67
2023/02/21 04:50:04;;;;;;;;;;;;;;;9.20;86.06;100675.31;4195859;28;20575;-67
2023/02/21 04:52:06;;;;;;;;;;;;;;;9.20;86.13;100678.00;4197432;28;20023;-67
2023/02/21 04:54:08;;;;;;;;;;;;;;;9.20;86.33;100661.84;4196050;28;20011;-67
2023/02/21 04:56:11;;;;;;;;;;;;;;;9.18;86.11;100658.47;4196110;28;20028;-67
2023/02/21 04:58:13;;;;;;;;;;;;;;;9.19;86.05;100665.53;4196193;28;20011;-67
2023/02/21 05:00:16;;;;;;;;;;;;;;;9.18;86.03;100674.66;4191257;28;20449;-67
2023/02/21 05:02:20;;;;;;;;;;;;;;;9.18;86.95;100671.97;4194588;28;20026;-67
2023/02/21 05:04:23;;;;;;;;;;;;;;;9.19;87.58;100662.00;4194683;28;20028;-67
2023/02/21 05:06:26;;;;;;;;;;;;;;;9.17;87.32;100672.97;4195977;28;20034;-67
2023/02/21 05:08:28;;;;;;;;;;;;;;;9.17;86.99;100682.91;4196130;28;20011;-67
2023/02/21 05:10:30;;;;;;;;;;;;;;;9.16;87.19;100665.03;4193407;28;20498;-67
2023/02/21 05:12:32;;;;;;;;;;;;;;;9.16;87.29;100681.22;4194598;28;20031;-67
2023/02/21 05:14:34;;;;;;;;;;;;;;;9.17;87.39;100675.66;4185785;28;19928;-67
2023/02/21 05:16:36;;;;;;;;;;;;;;;9.17;86.86;100672.13;4193095;28;20011;-67
2023/02/21 05:18:38;;;;;;;;;;;;;;;9.16;86.72;100671.25;4193107;28;20022;-67
2023/02/21 05:20:41;;;;;;;;;;;;;;;9.15;87.13;100660.66;4194230;28;20028;-67
2023/02/21 05:22:43;;;;;;;;;;;;;;;9.17;86.61;100664.03;4195242;28;20018;-67
2023/02/21 05:24:46;;;;;;;;;;;;;;;9.16;86.75;100673.97;4195300;28;20015;-67
2023/02/21 05:26:48;;;;;;;;;;;;;;;9.16;87.34;100670.44;4194742;28;20027;-67
2023/02/21 05:28:50;;;;;;;;;;;;;;;9.16;87.20;100671.25;4195292;28;20027;-67
2023/02/21 05:30:52;;;;;;;;;;;;;;;9.16;87.45;100671.25;4194186;28;20023;-67
2023/02/21 05:32:54;;;;;;;;;;;;;;;9.15;87.75;100669.59;4195205;28;20011;-67
2023/02/21 05:34:56;;;;;;;;;;;;;;;9.16;87.53;100675.81;4193507;28;20008;-67
2023/02/21 05:36:59;;;;;;;;;;;;;;;9.16;87.36;100686.59;4195912;28;20040;-67
2023/02/21 05:39:01;;;;;;;;;;;;;;;9.15;87.19;100683.06;4195517;28;20027;-67
2023/02/21 05:41:03;;;;;;;;;;;;;;;9.17;87.43;100688.28;4194040;28;20446;-67
2023/02/21 05:43:05;;;;;;;;;;;;;;;9.17;87.08;100678.34;4193673;28;20010;-67
2023/02/21 05:45:08;;;;;;;;;;;;;;;9.18;87.08;100684.56;4193733;28;20027;-67
2023/02/21 05:47:10;;;;;;;;;;;;;;;9.17;87.07;100689.13;4193553;28;20024;-67
2023/02/21 05:49:12;;;;;;;;;;;;;;;9.17;86.75;100683.75;4191239;28;20072;-67
2023/02/21 05:51:14;;;;;;;;;;;;;;;9.16;87.18;100690.13;4198786;28;20575;-67
2023/02/21 05:53:18;;;;;;;;;;;;;;;9.16;87.16;100692.81;4188586;28;20035;-67
2023/02/21 05:55:20;;;;;;;;;;;;;;;9.16;87.39;100698.22;4193591;28;20019;-66
2023/02/21 05:57:22;;;;;;;;;;;;;;;9.14;87.38;100692.16;4193797;28;20031;-66
2023/02/21 05:59:24;;;;;;;;;;;;;;;9.15;87.35;100698.38;4192488;28;20019;-66
2023/02/21 06:01:26;;;;;;;;;;;;;;;9.14;87.48;100702.94;4189837;28;20095;-66
2023/02/21 06:03:28;;;;;;;;;;;;;;;9.14;88.22;100694.84;4190644;28;20015;-66
2023/02/21 06:05:31;;;;;;;;;;;;;;;9.14;88.45;100704.78;4192077;28;20035;-66
2023/02/21 06:07:33;;;;;;;;;;;;;;;9.13;88.51;100703.09;4191009;28;20031;-67
2023/02/21 06:09:37;;;;;;;;;;;;;;;9.13;88.01;100711.19;4189464;28;20023;-67
2023/02/21 06:11:39;;;;;;;;;;;;;;;9.12;87.93;100709.50;4189668;28;20039;-68
2023/02/21 06:13:42;;;;;;;;;;;;;;;9.13;88.14;100709.31;4193278;28;20047;-67
2023/02/21 06:15:44;;;;;;;;;;;;;;;9.12;87.82;100715.75;4191568;28;20039;-67
2023/02/21 06:17:46;;;;;;;;;;;;;;;9.12;88.37;100715.75;4192298;28;20046;-68
2023/02/21 06:19:48;;;;;;;;;;;;;;;9.11;88.43;100718.59;4191760;28;20031;-67
2023/02/21 06:21:53;;;;;;;;;;;;;;;9.11;88.61;100724.00;4191393;28;20026;-67
2023/02/21 06:23:55;;;;;;;;;;;;;;;9.11;88.63;100732.91;4193920;28;20363;-67
2023/02/21 06:25:58;;;;;;;;;;;;;;;9.10;88.43;100731.22;4190576;28;20339;-67
2023/02/21 06:28:00;;;;;;;;;;;;;;;9.10;88.82;100736.59;4189427;28;20484;-67
2023/02/21 06:30:02;;;;;;;;;;;;;;;9.09;88.46;100732.25;4192013;28;20020;-67
2023/02/21 06:32:05;;;;;;;;;;;;;;;9.11;88.33;100742.84;4193593;28;20088;-67
2023/02/21 06:34:07;;;;;;;;;;;;;;;9.10;88.16;100742.00;4194854;28;20023;-67
2023/02/21 06:36:11;;;;;;;;;;;;;;;9.10;88.34;100746.53;4188567;28;20019;-67
2023/02/21 06:38:13;;;;;;;;;;;;;;;9.11;88.32;100750.94;4192846;28;20023;-67
2023/02/21 06:40:15;;;;;;;;;;;;;;;9.10;87.92;100752.78;4200254;28;20027;-66
2023/02/21 06:42:18;;;;;;;;;;;;;;;9.09;88.56;100758.31;4192064;28;20023;-66
2023/02/21 06:44:20;;;;;;;;;;;;;;;9.08;87.89;100760.19;4193579;28;20023;-67
2023/02/21 06:46:23;;;;;;;;;;;;;;;9.07;87.95;100761.19;4194210;28;20011;-67
2023/02/21 06:48:26;;;;;;;;;;;;;;;9.08;88.32;100757.50;4197047;28;20845;-67
2023/02/21 06:50:27;;;;;;;;;;;;;;;9.09;88.15;100771.78;4203753;28;20065;-67
2023/02/21 06:52:30;;;;;;;;;;;;;;;9.08;88.23;100767.44;4197069;28;20015;-67
2023/02/21 06:54:34;;;;;;;;;;;;;;;9.08;87.91;100770.97;4194482;28;20007;-67
2023/02/21 06:56:36;;;;;;;;;;;;;;;9.10;88.62;100770.78;4196405;28;20015;-67
2023/02/21 06:58:39;;;;;;;;;;;;;;;9.09;88.15;100771.78;4197456;28;20035;-67
2023/02/21 07:00:41;;;;;;;;;;;;;;;9.08;87.99;100781.75;4196984;28;20024;-66
2023/02/21 07:02:44;;;;;;;;;;;;;;;9.08;88.48;100787.13;4197044;28;20012;-67
2023/02/21 07:04:46;;;;;;;;;;;;;;;9.07;88.21;100788.13;4197606;28;20003;-66
2023/02/21 07:06:48;;;;;;;;;;;;;;;9.07;88.34;100793.50;4197386;28;20015;-67
2023/02/21 07:08:50;;;;;;;;;;;;;;;9.08;88.13;100800.59;4197484;28;20032;-66
2023/02/21 07:10:52;;;;;;;;;;;;;;;9.08;88.04;100805.16;4197801;28;19962;-67
2023/02/21 07:12:54;;;;;;;;;;;;;;;9.06;87.73;100805.31;4183634;28;20537;-67
2023/02/21 07:14:57;;;;;;;;;;;;;;;9.07;87.67;100807.00;4192281;28;20063;-66
2023/02/21 07:16:59;;;;;;;;;;;;;;;9.08;87.69;100810.53;4193951;28;20035;-66
2023/02/21 07:19:01;;;;;;;;;;;;;;;9.08;87.63;100813.25;4195755;28;20342;-67
2023/02/21 07:21:03;;;;;;;;;;;;;;;9.10;87.49;100819.28;4191942;28;20023;-67
2023/02/21 07:23:05;;;;;;;;;;;;;;;9.08;87.92;100822.16;4196740;28;20023;-66
2023/02/21 07:25:07;;;;;;;;;;;;;;;9.09;87.87;100814.91;4193049;28;20235;-67
2023/02/21 07:27:09;;;;;;;;;;;;;;;9.09;88.22;100831.94;4194472;28;20011;-67
2023/02/21 07:29:11;;;;;;;;;;;;;;;9.08;88.54;100827.53;4193806;28;20360;-66
2023/02/21 07:31:15;;;;;;;;;;;;;;;9.08;88.69;100830.25;4192027;28;20011;-67
2023/02/21 07:33:17;;;;;;;;;;;;;;;9.09;88.90;100837.31;4194119;28;20030;-67
2023/02/21 07:35:19;;;;;;;;;;;;;;;9.09;88.34;100844.53;4194436;28;20015;-67
2023/02/21 07:37:21;;;;;;;;;;;;;;;9.09;88.07;100844.53;4195223;28;20027;-67
2023/02/21 07:39:23;;;;;;;;;;;;;;;9.11;87.62;100842.56;4196028;28;20028;-67
2023/02/21 07:41:25;;;;;;;;;;;;;;;9.10;88.21;100839.00;4195512;28;20024;-66
2023/02/21 07:43:27;;;;;;;;;;;;;;;9.09;87.78;100847.25;4196332;28;20374;-67
2023/02/21 07:45:29;;;;;;;;;;;;;;;9.10;87.70;100857.84;4196311;28;20011;-66
2023/02/21 07:47:33;;;;;;;;;;;;;;;9.11;88.06;100861.41;4195997;28;20024;-67
2023/02/21 07:49:37;;;;;;;;;;;;;;;9.10;87.99;100852.47;4195198;28;20434;-67
2023/02/21 07:51:39;;;;;;;;;;;;;;;9.11;87.75;100862.25;4197034;28;20015;-67
2023/02/21 07:53:41;;;;;;;;;;;;;;;9.10;87.92;100852.47;4196748;28;20015;-67
2023/02/21 07:55:43;;;;;;;;;;;;;;;9.12;87.42;100853.16;4196632;28;20011;-67
2023/02/21 07:57:48;;;;;;;;;;;;;;;9.12;87.56;100852.31;4194965;28;20023;-67
2023/02/21 07:59:50;;;;;;;;;;;;;;;9.12;87.55;100853.16;4195893;28;20107;-67
2023/02/21 08:01:53;;;;;;;;;;;;;;;9.12;87.78;100849.59;4196793;28;20007;-67
2023/02/21 08:03:57;;;;;;;;;;;;;;;9.12;87.72;100855.84;4195888;28;20529;-67
2023/02/21 08:05:59;;;;;;;;;;;;;;;9.13;87.68;100864.78;4193067;28;20471;-67
2023/02/21 08:08:01;;;;;;;;;;;;;;;9.13;87.51;100862.91;4177242;28;20055;-66
2023/02/21 08:10:04;;;;;;;;;;;;;;;9.13;87.53;100876.38;4177817;28;20443;-66
2023/02/21 08:12:06;;;;;;;;;;;;;;;9.13;87.05;100867.47;4188170;28;20029;-67
2023/02/21 08:14:09;;;;;;;;;;;;;;;9.14;87.47;100879.94;4203164;28;20618;-66
2023/02/21 08:16:11;;;;;;;;;;;;;;;9.14;87.49;100882.63;4194524;28;20019;-67
2023/02/21 08:18:19;;;;;;;;;;;;;;;9.15;87.92;100881.59;4195417;28;20027;-66
2023/02/21 08:20:23;;;;;;;;;;;;;;;9.15;87.88;100892.38;4195639;28;20011;-66
2023/02/21 08:22:25;;;;;;;;;;;;;;;9.15;87.85;100882.47;4193830;28;20648;-66
2023/02/21 08:24:27;;;;;;;;;;;;;;;9.16;87.50;100886.84;4195063;28;20441;-66
2023/02/21 08:26:29;;;;;;;;;;;;;;;9.17;87.19;100891.22;4196233;28;20051;-66
2023/02/21 08:28:31;;;;;;;;;;;;;;;9.18;87.37;100886.66;4194821;28;20007;-66
2023/02/21 08:30:33;;;;;;;;;;;;;;;9.20;87.12;100893.59;4195323;28;20023;-66
2023/02/21 08:32:35;;;;;;;;;;;;;;;9.22;87.04;100900.69;4194629;28;20016;-66
2023/02/21 08:34:37;;;;;;;;;;;;;;;9.21;86.55;100891.72;4186240;28;20025;-67
2023/02/21 08:36:41;;;;;;;;;;;;;;;9.20;86.88;100901.69;4195840;28;20040;-66
2023/02/21 08:38:43;;;;;;;;;;;;;;;9.22;86.75;100888.03;4196096;28;20363;-66
2023/02/21 08:40:46;;;;;;;;;;;;;;;9.21;86.41;100891.72;4196335;28;20446;-67
2023/02/21 08:42:48;;;;;;;;;;;;;;;9.22;86.28;100898.81;4196237;28;20012;-66
2023/02/21 08:44:50;;;;;;;;;;;;;;;9.22;86.24;100893.44;4202501;28;20104;-66
2023/02/21 08:46:52;;;;;;;;;;;;;;;9.24;86.42;100898.66;4194583;28;20019;-66
2023/02/21 08:48:54;;;;;;;;;;;;;;;9.23;86.20;100897.78;4196169;28;20024;-67
2023/02/21 08:50:56;;;;;;;;;;;;;;;9.24;86.11;100901.34;4193693;28;20019;-66
2023/02/21 08:52:59;;;;;;;;;;;;;;;9.22;86.35;100901.50;4194528;28;20186;-66
2023/02/21 08:55:01;;;;;;;;;;;;;;;9.23;86.08;100896.97;4194796;28;20003;-66
2023/02/21 08:57:03;;;;;;;;;;;;;;;9.25;86.33;100900.31;4195389;28;20023;-66
2023/02/21 08:59:08;;;;;;;;;;;;;;;9.26;86.09;100902.84;4195385;28;20011;-66
2023/02/21 09:01:10;;;;;;;;;;;;;;;9.26;86.29;100900.16;4195389;28;20019;-66
2023/02/21 09:03:12;;;;;;;;;;;;;;;9.26;86.15;100907.41;4195494;28;20030;-66
2023/02/21 09:05:15;;;;;;;;;;;;;;;9.28;86.17;100908.94;4195316;28;20029;-66
2023/02/21 09:07:18;;;;;;;;;;;;;;;9.29;86.23;100904.38;4194073;28;20020;-66
2023/02/21 09:09:21;;;;;;;;;;;;;;;9.28;86.01;100905.38;4193805;28;20428;-66
2023/02/21 09:11:23;;;;;;;;;;;;;;;9.32;86.15;100912.16;4192544;28;20007;-65
2023/02/21 09:13:25;;;;;;;;;;;;;;;9.32;85.77;100912.16;4195240;28;20019;-66
2023/02/21 09:15:27;;;;;;;;;;;;;;;9.31;86.07;100913.16;4194620;28;20019;-65
2023/02/21 09:17:32;;;;;;;;;;;;;;;9.33;85.65;100919.25;4195414;28;20042;-66
2023/02/21 09:19:34;;;;;;;;;;;;;;;9.34;85.56;100924.47;4195014;28;20521;-66
2023/02/21 09:21:44;;;;;;;;;;;;;;;9.35;85.50;100917.22;4188103;28;20021;-65
2023/02/21 09:23:46;;;;;;;;;;;;;;;9.34;85.46;100916.38;4189562;28;20445;-66
2023/02/21 09:25:49;;;;;;;;;;;;;;;9.34;85.71;100924.47;4193557;28;20035;-65
2023/02/21 09:27:51;;;;;;;;;;;;;;;9.35;85.48;100920.75;4193409;28;20051;-65
2023/02/21 09:29:55;;;;;;;;;;;;;;;9.36;85.56;100922.44;4191961;28;20015;-66
2023/02/21 09:31:57;;;;;;;;;;;;;;;9.36;85.27;100933.22;4194118;28;20024;-66
2023/02/21 09:33:59;;;;;;;;;;;;;;;9.36;85.57;100935.09;4193225;28;20043;-66
2023/02/21 09:36:01;;;;;;;;;;;;;;;9.37;85.32;100939.44;4194256;28;20085;-65
2023/02/21 09:38:05;;;;;;;;;;;;;;;9.37;85.49;100939.44;4193833;28;20019;-66
2023/02/21 09:40:10;;;;;;;;;;;;;;;9.40;85.37;100940.97;4193121;28;20016;-66
2023/02/21 09:42:15;;;;;;;;;;;;;;;9.40;85.37;100944.50;4188945;28;20453;-66
2023/02/21 09:44:19;;;;;;;;;;;;;;;9.42;85.30;100953.28;4189909;28;20012;-66
2023/02/21 09:46:21;;;;;;;;;;;;;;;9.39;85.00;100942.84;4190778;28;20023;-66
2023/02/21 09:48:24;;;;;;;;;;;;;;;9.38;85.28;100944.66;4188714;28;20369;-66
2023/02/21 09:50:29;;;;;;;;;;;;;;;9.38;84.93;100938.44;4185582;28;20368;-66
2023/02/21 09:52:32;;;;;;;;;;;;;;;9.38;85.27;100944.66;4188869;28;20011;-66
2023/02/21 09:54:35;;;;;;;;;;;;;;;9.38;85.33;100947.38;4185896;28;20122;-67
2023/02/21 09:56:38;;;;;;;;;;;;;;;9.40;85.50;100938.28;4193485;28;20023;-67
2023/02/21 09:58:43;;;;;;;;;;;;;;;9.40;85.41;100944.50;4193957;28;20340;-67
2023/02/21 10:00:45;;;;;;;;;;;;;;;9.40;85.32;100943.66;4191571;28;20019;-66
2023/02/21 10:02:51;;;;;;;;;;;;;;;9.41;85.32;100945.38;4194682;28;20141;-66
2023/02/21 10:04:56;;;;;;;;;;;;;;;9.41;85.33;100956.16;4192851;28;20360;-65
2023/02/21 10:06:59;;;;;;;;;;;;;;;9.43;85.18;100951.44;4191635;28;20020;-65
2023/02/21 10:09:03;;;;;;;;;;;;;;;9.42;85.25;100957.81;4189674;28;20011;-70
2023/02/21 10:11:07;;;;;;;;;;;;;;;9.43;84.93;100949.56;4191809;28;20012;-69
2023/02/21 10:13:11;;;;;;;;;;;;;;;9.44;85.17;100953.97;4191121;28;20023;-66
2023/02/21 10:15:19;;;;;;;;;;;;;;;9.45;85.12;100949.41;4199714;28;20035;-66
2023/02/21 10:17:22;;;;;;;;;;;;;;;9.44;84.96;100953.97;4193185;28;19992;-66
2023/02/21 10:19:28;;;;;;;;;;;;;;;9.46;85.13;100948.41;4192093;28;20028;-66
2023/02/21 10:21:31;;;;;;;;;;;;;;;9.49;84.89;100953.47;4187284;28;20048;-66
2023/02/21 10:23:34;;;;;;;;;;;;;;;9.48;84.61;100958.03;4190824;28;20023;-66
2023/02/21 10:25:36;;;;;;;;;;;;;;;9.50;84.73;100945.22;4189906;28;20016;-67
2023/02/21 10:27:38;;;;;;;;;;;;;;;9.54;84.59;100961.91;4192194;28;20031;-67
2023/02/21 10:29:42;;;;;;;;;;;;;;;9.60;84.29;100963.09;4194401;28;20528;-67
2023/02/21 10:31:46;;;;;;;;;;;;;;;9.62;84.47;100959.22;4193514;28;20015;-67
2023/02/21 10:33:48;;;;;;;;;;;;;;;9.63;84.03;100957.38;4191088;28;20457;-67
2023/02/21 10:35:53;;;;;;;;;;;;;;;9.66;83.97;100962.44;4194917;28;20024;-67
2023/02/21 10:37:56;;;;;;;;;;;;;;;9.70;84.21;100963.78;4194424;28;20022;-67
2023/02/21 10:39:59;;;;;;;;;;;;;;;9.70;83.83;100972.75;4194247;28;20028;-67
2023/02/21 10:42:01;;;;;;;;;;;;;;;9.74;83.90;100968.69;4193996;28;20402;-66
2023/02/21 10:44:04;;;;;;;;;;;;;;;9.77;83.71;100967.53;4193849;28;20039;-66
2023/02/21 10:46:15;;;;;;;;;;;;;;;9.77;83.20;100973.41;4193806;28;20000;-67
2023/02/21 10:48:19;;;;;;;;;;;;;;;9.80;83.33;100972.59;4193184;28;20015;-67
2023/02/21 10:50:35;;;;;;;;;;;;;;;9.81;83.36;100971.59;4192353;28;19947;-67
2023/02/21 10:52:38;;;;;;;;;;;;;;;9.82;83.30;100967.03;4194634;28;20023;-67
2023/02/21 10:54:40;;;;;;;;;;;;;;;9.91;82.26;100972.25;4194274;28;20038;-67
2023/02/21 10:56:42;;;;;;;;;;;;;;;9.96;81.97;100960.97;4194320;28;20027;-67
2023/02/21 10:58:45;;;;;;;;;;;;;;;9.93;82.30;100975.63;4195469;28;20035;-68
2023/02/21 11:00:47;;;;;;;;;;;;;;;9.94;82.48;100976.47;4192045;28;20019;-67
2023/02/21 11:02:49;;;;;;;;;;;;;;;9.92;82.62;100970.38;4194453;28;20046;-67
2023/02/21 11:04:52;;;;;;;;;;;;;;;9.95;82.31;100977.31;4194773;28;20447;-67
2023/02/21 11:06:54;;;;;;;;;;;;;;;9.97;82.13;100978.84;4193949;28;20039;-67
2023/02/21 11:08:58;;;;;;;;;;;;;;;9.99;81.92;100967.88;4194219;28;20019;-67
2023/02/21 11:11:00;;;;;;;;;;;;;;;9.97;81.96;100975.28;4192272;28;20031;-67
2023/02/21 11:13:03;;;;;;;;;;;;;;;9.95;82.54;100978.16;4193678;28;20031;-67
2023/02/21 11:15:10;;;;;;;;;;;;;;;9.97;81.48;100981.53;4194605;28;20015;-67
2023/02/21 11:17:15;;;;;;;;;;;;;;;9.97;81.98;100976.16;4194048;28;20043;-67
2023/02/21 11:19:17;;;;;;;;;;;;;;;9.98;82.16;100958.09;4194108;28;19971;-67
2023/02/21 11:21:22;;;;;;;;;;;;;;;9.97;82.21;100959.97;4194682;28;20011;-66
2023/02/21 11:23:25;;;;;;;;;;;;;;;9.99;81.77;100966.03;4193746;28;20477;-67
2023/02/21 11:25:28;;;;;;;;;;;;;;;10.01;81.80;100960.47;4192824;28;20497;-66
2023/02/21 11:27:30;;;;;;;;;;;;;;;10.00;81.54;100961.47;4195293;28;20012;-66
2023/02/21 11:29:33;;;;;;;;;;;;;;;10.00;81.69;100969.56;4194380;28;20051;-67
2023/02/21 11:31:35;;;;;;;;;;;;;;;10.01;81.24;100968.56;4194976;28;20015;-67
2023/02/21 11:33:37;;;;;;;;;;;;;;;10.00;81.33;100969.56;4197198;28;20011;-67
2023/02/21 11:35:39;;;;;;;;;;;;;;;9.99;81.87;100967.88;4196769;28;20023;-67
2023/02/21 11:37:50;;;;;;;;;;;;;;;10.01;81.43;100968.56;4197476;28;19979;-67
2023/02/21 11:39:52;;;;;;;;;;;;;;;10.03;81.31;100959.28;4196315;28;20011;-67
2023/02/21 11:41:54;;;;;;;;;;;;;;;10.04;80.92;100970.91;4197710;28;20019;-67
2023/02/21 11:43:57;;;;;;;;;;;;;;;10.05;80.20;100954.56;4197577;28;20035;-67
2023/02/21 11:46:04;;;;;;;;;;;;;;;10.08;80.22;100973.13;4197506;28;20047;-67
2023/02/21 11:48:07;;;;;;;;;;;;;;;10.10;80.00;100973.78;4197552;28;20015;-67
2023/02/21 11:50:10;;;;;;;;;;;;;;;10.07;80.07;100959.78;4196144;28;20015;-67
2023/02/21 11:52:15;;;;;;;;;;;;;;;10.10;80.14;100971.09;4196515;28;20031;-67
2023/02/21 11:54:19;;;;;;;;;;;;;;;10.13;79.62;100977.19;4195854;28;20019;-67
2023/02/21 11:56:26;;;;;;;;;;;;;;;10.13;79.60;100964.50;4205369;28;20007;-67
2023/02/21 11:58:29;;;;;;;;;;;;;;;10.14;79.74;100971.63;4196365;28;20036;-66
2023/02/21 12:00:34;;;;;;;;;;;;;;;10.14;80.25;100976.16;4194743;28;20353;-67
2023/02/21 12:02:55;;;;;;;;;;;;;;;10.14;79.96;100968.91;4196354;28;20015;-67
2023/02/21 12:05:00;;;;;;;;;;;;;;;10.16;78.50;100979.53;4195976;28;20027;-66
2023/02/21 12:07:04;;;;;;;;;;;;;;;10.17;78.90;100983.91;4204556;28;19982;-67
2023/02/21 12:09:07;;;;;;;;;;;;;;;10.16;79.50;100974.97;4195736;28;20035;-66
2023/02/21 12:11:14;;;;;;;;;;;;;;;10.14;79.46;100982.41;4195865;28;20022;-68
2023/02/21 12:13:18;;;;;;;;;;;;;;;-146.32;100.00;63746.28;4196750;28;20022;-67
2023/02/21 12:15:21;;;;;;;;;;;;;;;-146.32;100.00;63746.28;4195461;28;20003;-68
2023/02/21 12:17:28;;;;;;;;;;;;;;;-146.32;100.00;63746.28;4196640;28;20018;-67
2023/02/21 12:19:37;;;;;;;;;;;;;;;-146.32;100.00;63746.28;4195881;28;20426;-67
2023/02/21 12:21:54;;;;;;;;;;;;;;;-146.32;100.00;63746.28;4192902;28;20007;-68
2023/02/21 12:23:57;;;;;;;;;;;;;;;-146.32;100.00;63746.28;4192732;28;20020;-67
2023/02/21 12:26:02;;;;;;;;;;;;;;;-146.32;100.00;63746.28;4194506;28;20003;-68
2023/02/21 12:28:16;;;;;;;;;;;;;;;-146.32;100.00;63746.28;4193073;28;20434;-67
2023/02/21 12:30:25;;;;;;;;;;;;;;;-146.32;100.00;63746.28;4187690;28;20000;-68
2023/02/21 12:32:41;;;;;;;;;;;;;;;-146.32;100.00;63746.28;4193187;28;20434;-67
2023/02/21 12:34:46;;;;;;;;;;;;;;;-146.32;100.00;63746.28;4193677;28;20007;-67
2023/02/21 12:36:52;;;;;;;;;;;;;;;-146.32;100.00;63746.28;4191775;28;20035;-66
2023/02/21 12:38:59;;;;;;;;;;;;;;;10.14;79.88;100981.53;4194179;28;20019;-66
2023/02/21 12:41:02;;;;;;;;;;;;;;;10.16;78.60;100988.47;4189896;28;20359;-65
2023/02/21 12:43:11;;;;;;;;;;;;;;;10.14;79.13;100981.53;4191727;28;20027;-66
2023/02/21 12:45:18;;;;;;;;;;;;;;;10.14;78.55;100981.53;4188711;28;20219;-65
2023/02/21 12:47:23;;;;;;;;;;;;;;;10.14;78.76;100976.16;4193443;28;20454;-66
2023/02/21 12:49:27;;;;;;;;;;;;;;;10.16;78.95;100979.53;4193362;28;20023;-67
2023/02/21 12:51:30;;;;;;;;;;;;;;;10.18;78.77;100975.63;4189352;28;20023;-66
2023/02/21 12:53:33;;;;;;;;;;;;;;;10.18;79.00;100978.34;4193054;28;20366;-66
2023/02/21 12:55:36;;;;;;;;;;;;;;;10.21;79.05;100985.25;4191339;28;19924;-66
2023/02/21 12:57:41;;;;;;;;;;;;;;;10.22;78.66;100976.13;4188502;28;20443;-65